This is the latest recevied weather packets stored in our database for station/object N8AMF. If no packets are shown the sender has not sent any weather packets the latest 10 day(s).
| Time | Temp. | Humidity | Pressure | Rain* | Wind** | Luminosity | Snow |
|---|---|---|---|---|---|---|---|
| 1777851788 | 15° C | 41% | 1010.6 hPa | 0 mm | - | 34 W/m² | - |
| 1777851486 | 15° C | 40% | 1010.6 hPa | 0 mm | - | 44 W/m² | - |
| 1777851181 | 15° C | 41% | 1010.6 hPa | 0 mm | - | 47 W/m² | - |
| 1777850878 | 15° C | 40% | 1010.6 hPa | 0 mm | - | 52 W/m² | - |
| 1777850576 | 15° C | 40% | 1010.6 hPa | 0 mm | - | 54 W/m² | - |
| 1777850274 | 15° C | 39% | 1010.7 hPa | 0 mm | - | 57 W/m² | - |
| 1777849971 | 15.56° C | 40% | 1010.7 hPa | 0 mm | - | 56 W/m² | - |
| 1777849666 | 15.56° C | 39% | 1010.7 hPa | 0 mm | - | 64 W/m² | - |
| 1777849364 | 15.56° C | 39% | 1011 hPa | 0 mm | - | 71 W/m² | - |
| 1777849061 | 15.56° C | 38% | 1010.8 hPa | 0 mm | - | 71 W/m² | - |
| 1777848761 | 15.56° C | 39% | 1010.8 hPa | 0 mm | - | 72 W/m² | - |
| 1777848458 | 15.56° C | 40% | 1010.8 hPa | 0 mm | - | 69 W/m² | - |
| 1777848156 | 15.56° C | 38% | 1010.8 hPa | 0 mm | - | 92 W/m² | - |
| 1777847854 | 16.11° C | 38% | 1010.7 hPa | 0 mm | - | 83 W/m² | - |
| 1777847551 | 16.11° C | 37% | 1011 hPa | 0 mm | - | 84 W/m² | - |
| 1777847247 | 16.11° C | 37% | 1011 hPa | 0 mm | - | 88 W/m² | - |
| 1777846945 | 16.11° C | 39% | 1010.9 hPa | 0 mm | - | 83 W/m² | - |
| 1777846643 | 16.11° C | 37% | 1010.9 hPa | 0 mm | - | 93 W/m² | - |
| 1777846341 | 16.11° C | 37% | 1011 hPa | 0 mm | - | 91 W/m² | - |
| 1777846037 | 16.11° C | 37% | 1011 hPa | 0 mm | - | 96 W/m² | - |
| 1777845734 | 16.67° C | 35% | 1011.2 hPa | 0 mm | - | 211 W/m² | - |
| 1777845430 | 16.67° C | 39% | 1010.8 hPa | 0 mm | - | 399 W/m² | - |
| 1777845128 | 16.11° C | 36% | 1011.2 hPa | 0 mm | - | 134 W/m² | - |
| 1777844826 | 16.67° C | 36% | 1011 hPa | 0 mm | - | 425 W/m² | - |
| 1777844522 | 17.22° C | 35% | 1011.2 hPa | 0 mm | - | 450 W/m² | - |
* Rain latest hour (hover to see other rain measurements)
** Current wind speed in m/s (hover to see current wind gust speed)